Time;durP1;ratioP1;P1;durP2;ratioP2;P2;SDS_P1;SDS_P2;PMS_P1;PMS_P2;Temp;Humidity;BMP_temperature;BMP_pressure;BME280_temperature;BME280_humidity;BME280_pressure;Samples;Min_cycle;Max_cycle;Signal;HPM_P1;HPM_P2
2022/11/30 00:01:41;;;;;;;21.07;14.27;;;6.80;99.90;;;;;;5062277;28;20181;-64
2022/11/30 00:04:07;;;;;;;18.93;14.93;;;6.90;99.90;;;;;;5061728;28;20207;-64
2022/11/30 00:06:33;;;;;;;18.10;14.20;;;7.00;99.90;;;;;;5062437;28;20230;-62
2022/11/30 00:08:58;;;;;;;18.27;13.97;;;7.00;99.90;;;;;;5044545;28;20234;-64
2022/11/30 00:11:27;;;;;;;19.77;14.20;;;6.90;99.90;;;;;;5044636;28;20171;-63
2022/11/30 00:13:53;;;;;;;18.53;14.27;;;6.90;99.90;;;;;;5062084;28;20214;-64
2022/11/30 00:16:19;;;;;;;19.00;14.43;;;6.90;99.90;;;;;;5063017;28;20163;-63
2022/11/30 00:18:44;;;;;;;19.27;14.23;;;6.90;99.90;;;;;;5062111;28;20198;-63
2022/11/30 00:21:12;;;;;;;17.67;13.87;;;6.90;99.90;;;;;;5061482;28;20246;-64
2022/11/30 00:23:40;;;;;;;18.43;13.50;;;6.80;99.90;;;;;;5028185;28;20292;-63
2022/11/30 00:26:09;;;;;;;15.77;13.17;;;6.90;99.90;;;;;;5063014;28;20202;-64
2022/11/30 00:28:35;;;;;;;16.80;13.57;;;6.90;99.90;;;;;;5062801;28;20210;-62
2022/11/30 00:31:06;;;;;;;18.80;14.10;;;6.80;99.90;;;;;;5062914;28;20180;-63
2022/11/30 00:33:34;;;;;;;17.77;13.73;;;6.80;99.90;;;;;;5063607;28;21153;-63
2022/11/30 00:36:02;;;;;;;19.30;15.30;;;6.70;99.90;;;;;;5062684;28;20190;-64
2022/11/30 00:38:29;;;;;;;21.10;14.67;;;6.70;99.90;;;;;;5062124;28;20302;-63
2022/11/30 00:40:55;;;;;;;19.60;15.00;;;6.70;99.90;;;;;;5061580;28;20207;-63
2022/11/30 00:43:21;;;;;;;20.60;15.70;;;8.00;99.90;;;;;;5045126;28;20202;-62
2022/11/30 00:45:46;;;;;;;21.53;15.27;;;6.40;99.90;;;;;;5063040;28;20536;-63
2022/11/30 00:48:12;;;;;;;18.00;14.13;;;8.30;99.90;;;;;;5062929;28;20721;-63
2022/11/30 00:50:38;;;;;;;22.30;16.00;;;6.50;99.90;;;;;;5063157;28;20182;-61
2022/11/30 00:53:03;;;;;;;20.27;14.93;;;6.50;99.90;;;;;;5043480;28;20288;-63
2022/11/30 00:55:30;;;;;;;19.50;15.07;;;6.50;99.90;;;;;;5062317;28;20207;-63
2022/11/30 00:57:56;;;;;;;18.83;14.17;;;6.80;99.90;;;;;;5062382;28;20198;-56
2022/11/30 01:00:22;;;;;;;20.17;14.97;;;6.60;99.90;;;;;;5063973;28;20237;-63
2022/11/30 01:02:47;;;;;;;20.97;15.77;;;6.70;99.90;;;;;;5062556;28;20553;-64
2022/11/30 01:05:13;;;;;;;19.13;14.77;;;6.70;99.90;;;;;;5062588;28;20171;-63
2022/11/30 01:07:38;;;;;;;18.90;14.53;;;6.70;99.90;;;;;;5062470;28;20279;-63
2022/11/30 01:10:04;;;;;;;19.07;14.53;;;6.90;99.90;;;;;;5062813;28;20586;-64
2022/11/30 01:12:30;;;;;;;18.43;14.23;;;6.80;99.90;;;;;;5044932;28;20199;-64
2022/11/30 01:14:56;;;;;;;20.17;15.37;;;6.80;99.90;;;;;;5062544;28;20183;-64
2022/11/30 01:17:21;;;;;;;17.53;14.03;;;6.80;99.90;;;;;;5063226;28;20202;-63
2022/11/30 01:19:47;;;;;;;19.03;14.93;;;6.80;99.90;;;;;;5063153;28;20170;-64
2022/11/30 01:22:12;;;;;;;18.97;15.07;;;7.60;99.90;;;;;;5044721;28;20590;-63
2022/11/30 01:24:38;;;;;;;21.37;15.30;;;6.90;99.90;;;;;;5062707;28;20175;-63
2022/11/30 01:27:03;;;;;;;19.43;14.57;;;6.80;99.90;;;;;;5063731;28;20245;-64
2022/11/30 01:29:29;;;;;;;19.30;15.20;;;7.40;99.90;;;;;;5062768;28;20556;-63
2022/11/30 01:31:54;;;;;;;18.30;14.50;;;6.60;99.90;;;;;;5062589;28;20175;-62
2022/11/30 01:34:20;;;;;;;19.27;14.60;;;6.70;99.90;;;;;;5063022;28;20206;-62
2022/11/30 01:36:47;;;;;;;18.63;13.93;;;6.70;99.90;;;;;;5062955;28;20288;-63
2022/11/30 01:39:13;;;;;;;21.23;15.23;;;6.70;99.90;;;;;;5044761;28;20171;-63
2022/11/30 01:41:39;;;;;;;18.20;14.47;;;6.70;99.90;;;;;;5045027;28;20203;-62
2022/11/30 01:44:04;;;;;;;19.83;15.23;;;6.80;99.90;;;;;;5062652;28;20187;-63
2022/11/30 01:47:08;;;;;;;20.97;15.40;;;6.70;99.90;;;;;;5062611;28;20175;-64
2022/11/30 01:49:38;;;;;;;19.97;13.90;;;6.50;99.90;;;;;;4986455;28;20192;-64
2022/11/30 01:52:17;;;;;;;19.03;15.13;;;6.50;99.90;;;;;;4984375;28;20196;-62
2022/11/30 01:54:53;;;;;;;20.70;15.80;;;6.50;99.90;;;;;;4968478;28;20201;-63
2022/11/30 01:57:25;;;;;;;20.73;15.60;;;6.60;99.90;;;;;;4969268;28;20207;-64
2022/11/30 01:59:53;;;;;;;18.80;14.93;;;6.50;99.90;;;;;;4985378;28;20201;-62
2022/11/30 02:02:27;;;;;;;18.87;14.90;;;6.50;99.90;;;;;;4985101;28;20174;-63
2022/11/30 02:04:53;;;;;;;19.57;15.03;;;6.40;99.90;;;;;;4984604;28;20312;-64
2022/11/30 02:07:18;;;;;;;19.00;14.97;;;6.40;99.90;;;;;;4984551;28;20201;-63
2022/11/30 02:09:44;;;;;;;18.77;14.33;;;6.40;99.90;;;;;;4985556;28;20266;-64
2022/11/30 02:12:28;;;;;;;20.60;15.10;;;7.00;99.90;;;;;;4984780;28;20205;-63
2022/11/30 02:14:57;;;;;;;20.33;14.80;;;7.70;99.90;;;;;;4985476;28;20181;-64
2022/11/30 02:17:40;;;;;;;20.03;15.00;;;6.50;99.90;;;;;;4985646;28;20677;-64
2022/11/30 02:20:36;;;;;;;19.07;14.93;;;6.40;99.90;;;;;;4986529;28;20245;-62
2022/11/30 02:23:23;;;;;;;18.00;14.17;;;6.40;99.90;;;;;;4968903;28;20726;-63
2022/11/30 02:26:04;;;;;;;17.30;13.20;;;6.40;99.90;;;;;;5031372;28;20209;-64
2022/11/30 02:28:51;;;;;;;18.70;14.20;;;6.40;99.90;;;;;;5068067;28;20655;-64
2022/11/30 02:31:25;;;;;;;18.20;14.23;;;6.40;99.90;;;;;;5067841;28;20179;-56
2022/11/30 02:33:54;;;;;;;18.53;14.13;;;6.40;99.90;;;;;;5066975;28;20252;-63
2022/11/30 02:36:21;;;;;;;18.83;14.47;;;6.40;99.90;;;;;;5067217;28;20691;-64
2022/11/30 02:38:47;;;;;;;18.43;13.97;;;6.40;99.90;;;;;;5049499;28;20218;-64
2022/11/30 02:41:13;;;;;;;19.57;14.77;;;6.50;99.90;;;;;;5068323;28;20202;-64
2022/11/30 02:43:38;;;;;;;17.13;13.73;;;6.50;99.90;;;;;;5066909;28;20199;-63
2022/11/30 02:46:24;;;;;;;18.40;14.33;;;6.60;99.90;;;;;;5067690;28;20201;-64
2022/11/30 02:49:04;;;;;;;19.13;13.90;;;6.60;99.90;;;;;;5049996;28;20834;-62
2022/11/30 02:51:34;;;;;;;16.87;13.47;;;6.50;99.90;;;;;;5048506;28;20179;-64
2022/11/30 02:53:59;;;;;;;17.40;14.17;;;7.10;99.90;;;;;;5067546;28;20202;-64
2022/11/30 02:56:25;;;;;;;17.73;13.37;;;6.60;99.90;;;;;;5067959;28;20175;-62
2022/11/30 02:58:51;;;;;;;17.53;14.10;;;6.50;99.90;;;;;;5067800;28;20210;-63
2022/11/30 03:01:17;;;;;;;18.27;14.30;;;6.40;99.90;;;;;;5067557;28;20167;-64
2022/11/30 03:03:43;;;;;;;19.50;14.77;;;7.30;99.90;;;;;;5067525;28;20202;-64
2022/11/30 03:06:09;;;;;;;18.37;14.13;;;6.30;99.90;;;;;;5068023;28;20562;-64
2022/11/30 03:08:35;;;;;;;18.97;13.20;;;6.30;99.90;;;;;;5067966;28;20273;-64
2022/11/30 03:11:02;;;;;;;17.97;13.83;;;6.20;99.90;;;;;;5069182;28;20206;-64
2022/11/30 03:13:29;;;;;;;17.60;13.77;;;6.20;99.90;;;;;;5068737;28;20187;-61
2022/11/30 03:15:55;;;;;;;17.93;14.17;;;6.30;99.90;;;;;;5068296;28;20174;-63
2022/11/30 03:18:20;;;;;;;18.13;14.67;;;6.20;99.90;;;;;;5068263;28;20198;-64
2022/11/30 03:20:46;;;;;;;19.53;14.80;;;6.10;99.90;;;;;;5068286;28;20195;-64
2022/11/30 03:23:12;;;;;;;18.97;14.53;;;6.30;99.90;;;;;;5068029;28;20225;-64
2022/11/30 03:25:37;;;;;;;18.80;13.67;;;6.10;99.90;;;;;;5068720;28;20178;-64
2022/11/30 03:28:03;;;;;;;18.37;14.53;;;6.10;99.90;;;;;;5069221;28;20186;-64
2022/11/30 03:30:28;;;;;;;16.23;12.03;;;6.10;99.90;;;;;;5051147;28;20210;-64
2022/11/30 03:32:54;;;;;;;15.37;12.97;;;7.90;99.90;;;;;;5069751;28;20263;-64
2022/11/30 03:35:20;;;;;;;16.53;12.67;;;6.00;99.90;;;;;;5070145;28;20243;-60
2022/11/30 03:37:46;;;;;;;15.67;13.07;;;5.90;99.90;;;;;;5067968;28;20199;-64
2022/11/30 03:40:12;;;;;;;17.43;13.33;;;6.20;99.90;;;;;;5069412;28;20171;-64
2022/11/30 03:42:37;;;;;;;18.30;13.47;;;5.90;99.90;;;;;;5068406;28;20225;-64
2022/11/30 03:45:03;;;;;;;17.70;13.53;;;5.90;99.90;;;;;;5067578;28;20198;-61
2022/11/30 03:47:29;;;;;;;17.63;13.90;;;5.90;99.90;;;;;;5066394;28;20175;-64
2022/11/30 03:49:54;;;;;;;16.83;12.80;;;5.90;99.90;;;;;;5042455;28;20211;-63
2022/11/30 03:52:20;;;;;;;16.07;13.53;;;5.90;99.90;;;;;;5041330;28;20213;-63
2022/11/30 03:54:45;;;;;;;18.73;14.40;;;5.90;99.90;;;;;;5059570;28;20198;-63
2022/11/30 03:57:11;;;;;;;18.43;13.80;;;5.90;99.90;;;;;;5058784;28;20267;-63
2022/11/30 03:59:36;;;;;;;19.93;14.83;;;6.00;99.90;;;;;;5060718;28;20174;-64
2022/11/30 04:02:02;;;;;;;18.13;13.90;;;6.30;99.90;;;;;;5060336;28;20167;-63
2022/11/30 04:04:28;;;;;;;17.60;13.67;;;5.70;99.90;;;;;;5041648;28;20264;-63
2022/11/30 04:06:53;;;;;;;21.77;15.73;;;5.70;99.90;;;;;;5058621;28;20175;-64
2022/11/30 04:09:19;;;;;;;21.70;16.40;;;5.50;99.90;;;;;;5041597;28;20175;-64
2022/11/30 04:11:44;;;;;;;21.77;15.87;;;5.60;99.90;;;;;;5059553;28;20174;-64
2022/11/30 04:14:10;;;;;;;19.90;14.70;;;5.70;99.90;;;;;;5060246;28;20218;-63
2022/11/30 04:16:36;;;;;;;17.83;13.87;;;5.50;99.90;;;;;;5059763;28;20179;-64
2022/11/30 04:19:01;;;;;;;19.10;14.17;;;5.60;99.90;;;;;;5060468;28;20195;-64
2022/11/30 04:21:27;;;;;;;21.57;15.53;;;5.60;99.90;;;;;;5060234;28;20194;-63
2022/11/30 04:23:53;;;;;;;19.90;15.57;;;5.60;99.90;;;;;;5059508;28;20191;-64
2022/11/30 04:26:18;;;;;;;19.20;14.67;;;5.70;99.90;;;;;;5042457;28;20175;-63
2022/11/30 04:28:44;;;;;;;18.57;13.23;;;5.70;99.90;;;;;;5060515;28;20193;-63
2022/11/30 04:31:10;;;;;;;16.60;12.77;;;5.80;99.90;;;;;;5060458;28;20191;-64
2022/11/30 04:33:36;;;;;;;18.00;15.03;;;5.80;99.90;;;;;;5060047;28;20215;-62
2022/11/30 04:36:04;;;;;;;16.00;13.40;;;5.80;99.90;;;;;;5060453;28;20175;-64
2022/11/30 04:38:31;;;;;;;15.33;13.10;;;5.80;99.90;;;;;;5059958;28;20202;-64
2022/11/30 04:40:57;;;;;;;16.50;13.80;;;5.80;99.90;;;;;;5061574;28;20167;-64
2022/11/30 04:43:23;;;;;;;17.57;13.97;;;5.90;99.90;;;;;;5060726;28;20241;-64
2022/11/30 04:45:49;;;;;;;18.73;14.97;;;6.00;99.90;;;;;;5061352;28;20163;-64
2022/11/30 04:48:16;;;;;;;18.57;15.63;;;6.00;99.90;;;;;;5060569;28;20241;-64
2022/11/30 04:50:42;;;;;;;20.23;15.97;;;6.00;99.90;;;;;;5061403;28;20183;-64
2022/11/30 04:53:08;;;;;;;23.43;18.77;;;6.00;99.90;;;;;;5060143;28;20537;-64
2022/11/30 04:55:36;;;;;;;22.30;17.27;;;6.40;99.90;;;;;;5042966;28;20190;-64
2022/11/30 04:58:02;;;;;;;24.43;19.13;;;5.90;99.90;;;;;;5061704;28;20199;-64
2022/11/30 05:00:28;;;;;;;24.30;19.37;;;5.90;99.90;;;;;;5061740;28;20520;-64
2022/11/30 05:02:56;;;;;;;27.03;20.20;;;5.80;99.90;;;;;;5061070;28;20217;-61
2022/11/30 05:05:22;;;;;;;24.53;19.53;;;5.70;99.90;;;;;;5061216;28;20250;-64
2022/11/30 05:07:50;;;;;;;25.37;19.33;;;5.60;99.90;;;;;;5059820;28;20178;-64
2022/11/30 05:10:15;;;;;;;25.97;20.07;;;5.70;99.90;;;;;;5060726;28;20167;-64
2022/11/30 05:12:41;;;;;;;26.60;20.47;;;5.70;99.90;;;;;;5060546;28;20209;-64
2022/11/30 05:15:07;;;;;;;24.90;19.93;;;5.80;99.90;;;;;;5060255;28;20535;-62
2022/11/30 05:17:33;;;;;;;28.23;20.73;;;5.90;99.90;;;;;;5060505;28;20559;-64
2022/11/30 05:19:58;;;;;;;27.07;20.30;;;5.90;99.90;;;;;;5043512;28;20217;-63
2022/11/30 05:22:24;;;;;;;25.37;20.17;;;5.90;99.90;;;;;;5060127;28;20251;-64
2022/11/30 05:24:49;;;;;;;27.80;21.00;;;6.00;99.90;;;;;;5061100;28;20171;-64
2022/11/30 05:27:15;;;;;;;25.20;20.23;;;5.90;99.90;;;;;;5042223;28;20183;-65
2022/11/30 05:29:41;;;;;;;24.63;19.37;;;5.90;99.90;;;;;;5060383;28;20179;-64
2022/11/30 05:32:06;;;;;;;25.03;20.97;;;5.90;99.90;;;;;;5061004;28;20170;-58
2022/11/30 05:34:32;;;;;;;29.27;20.47;;;5.90;99.90;;;;;;5061980;28;20209;-64
2022/11/30 05:36:59;;;;;;;24.13;18.63;;;5.90;99.90;;;;;;5060635;28;20198;-63
2022/11/30 05:39:24;;;;;;;24.87;19.93;;;5.90;99.90;;;;;;5061084;28;20182;-63
2022/11/30 05:41:50;;;;;;;26.07;19.40;;;5.80;99.90;;;;;;5042331;28;20183;-64
2022/11/30 05:44:16;;;;;;;27.03;20.47;;;5.80;99.90;;;;;;5060574;28;20218;-64
2022/11/30 05:46:41;;;;;;;27.93;21.10;;;5.70;99.90;;;;;;5061365;28;20647;-64
2022/11/30 05:49:07;;;;;;;25.07;20.00;;;5.60;99.90;;;;;;5061963;28;20167;-64
2022/11/30 05:51:32;;;;;;;28.80;22.30;;;5.50;99.90;;;;;;5062205;28;20178;-65
2022/11/30 05:53:58;;;;;;;28.83;20.60;;;5.50;99.90;;;;;;5043445;28;20199;-64
2022/11/30 05:56:24;;;;;;;32.10;23.60;;;5.50;99.90;;;;;;5061404;28;20659;-64
2022/11/30 05:58:49;;;;;;;27.57;20.50;;;5.70;99.90;;;;;;5061277;28;20237;-64
2022/11/30 06:01:25;;;;;;;26.93;19.80;;;5.50;99.90;;;;;;5043632;28;20185;-64
2022/11/30 06:03:51;;;;;;;27.87;20.37;;;5.40;99.90;;;;;;5061230;28;20277;-64
2022/11/30 06:06:17;;;;;;;26.73;19.20;;;5.20;99.90;;;;;;5061827;28;20177;-63
2022/11/30 06:08:44;;;;;;;30.37;20.27;;;5.20;99.90;;;;;;5062267;28;20183;-64
2022/11/30 06:11:10;;;;;;;33.80;22.87;;;5.20;99.90;;;;;;5062198;28;20181;-64
2022/11/30 06:13:36;;;;;;;38.67;22.17;;;5.30;99.90;;;;;;5062107;28;20195;-63
2022/11/30 06:16:03;;;;;;;27.43;18.90;;;5.30;99.90;;;;;;5043774;28;20178;-64
2022/11/30 06:18:29;;;;;;;27.10;19.83;;;5.20;99.90;;;;;;5060489;28;20202;-63
2022/11/30 06:21:03;;;;;;;26.83;18.67;;;5.10;99.90;;;;;;5060282;28;20213;-65
2022/11/30 06:23:29;;;;;;;24.97;18.27;;;5.20;99.90;;;;;;5059540;28;20195;-62
2022/11/30 06:25:54;;;;;;;24.27;17.20;;;5.30;99.90;;;;;;5059739;28;20178;-64
2022/11/30 06:28:20;;;;;;;20.87;16.17;;;5.30;99.90;;;;;;5041663;28;20274;-62
2022/11/30 06:30:45;;;;;;;23.27;18.60;;;5.40;99.90;;;;;;5060136;28;20191;-64
2022/11/30 06:33:11;;;;;;;21.77;16.63;;;5.50;99.90;;;;;;5059698;28;20231;-64
2022/11/30 06:35:43;;;;;;;23.40;18.90;;;5.50;99.90;;;;;;5061125;28;20206;-63
2022/11/30 06:38:09;;;;;;;22.50;17.90;;;5.60;99.90;;;;;;5062888;28;20195;-64
2022/11/30 06:40:35;;;;;;;22.77;17.30;;;5.50;99.90;;;;;;5063397;28;20171;-62
2022/11/30 06:43:01;;;;;;;24.07;18.20;;;5.50;99.90;;;;;;5063242;28;20191;-64
2022/11/30 06:45:26;;;;;;;25.43;18.90;;;5.50;99.90;;;;;;5063163;28;20178;-64
2022/11/30 06:47:54;;;;;;;21.33;16.87;;;5.40;99.90;;;;;;5063984;28;20203;-64
2022/11/30 06:50:20;;;;;;;21.93;17.23;;;5.50;99.90;;;;;;5065013;28;20179;-64
2022/11/30 06:52:45;;;;;;;22.93;16.53;;;5.50;99.90;;;;;;5063890;28;20213;-65
2022/11/30 06:55:11;;;;;;;21.37;16.77;;;6.80;99.90;;;;;;5064716;28;20179;-65
2022/11/30 06:57:37;;;;;;;21.13;16.67;;;5.50;99.90;;;;;;5065054;28;20615;-64
2022/11/30 07:00:03;;;;;;;22.73;17.40;;;5.60;99.90;;;;;;5064829;28;20178;-64
2022/11/30 07:02:29;;;;;;;22.07;17.13;;;5.60;99.90;;;;;;5047298;28;21123;-64
2022/11/30 07:04:54;;;;;;;22.97;17.30;;;5.70;99.90;;;;;;5063235;28;20175;-64
2022/11/30 07:07:20;;;;;;;21.10;16.77;;;5.70;99.90;;;;;;5063980;28;20179;-64
2022/11/30 07:09:46;;;;;;;20.70;16.70;;;5.70;99.90;;;;;;5044530;28;20187;-63
2022/11/30 07:12:11;;;;;;;20.57;16.07;;;5.80;99.90;;;;;;5061007;28;20207;-64
2022/11/30 07:14:37;;;;;;;19.17;15.50;;;5.80;99.90;;;;;;5062386;28;20652;-64
2022/11/30 07:17:03;;;;;;;19.30;15.37;;;5.80;99.90;;;;;;5061857;28;20277;-64
2022/11/30 07:19:29;;;;;;;18.53;14.93;;;5.80;99.90;;;;;;5077667;28;20179;-64
2022/11/30 07:21:55;;;;;;;19.73;15.50;;;5.90;99.90;;;;;;5062170;28;20270;-64
2022/11/30 07:27:06;;;;;;;71.77;46.70;;;6.00;99.90;;;;;;5063249;28;20364;-64
2022/11/30 07:29:31;;;;;;;55.90;40.17;;;6.10;99.90;;;;;;5063974;28;20254;-64
2022/11/30 07:31:57;;;;;;;61.30;44.63;;;6.20;99.90;;;;;;5044468;28;20183;-63
2022/11/30 07:34:23;;;;;;;34.43;25.90;;;6.20;99.90;;;;;;5061403;28;20203;-64
2022/11/30 07:36:48;;;;;;;26.60;20.17;;;6.30;99.90;;;;;;5061810;28;20533;-63
2022/11/30 07:39:14;;;;;;;22.90;17.47;;;6.30;99.90;;;;;;5076427;28;20644;-64
2022/11/30 07:41:41;;;;;;;38.03;25.63;;;6.40;99.90;;;;;;5062212;28;20190;-58
2022/11/30 07:44:07;;;;;;;28.37;22.87;;;6.50;99.90;;;;;;5066853;28;20190;-62
2022/11/30 07:46:34;;;;;;;19.87;16.33;;;6.70;99.90;;;;;;5050560;28;20171;-59
2022/11/30 07:49:08;;;;;;;19.73;15.80;;;6.50;99.90;;;;;;5061070;28;20521;-61
2022/11/30 07:51:34;;;;;;;18.13;14.83;;;7.00;99.90;;;;;;5051794;28;20194;-62
2022/11/30 07:54:00;;;;;;;18.97;14.73;;;6.70;99.90;;;;;;5064842;28;20305;-60
2022/11/30 07:56:26;;;;;;;16.97;14.07;;;8.00;99.90;;;;;;5049276;28;20178;-62
2022/11/30 07:58:58;;;;;;;18.57;14.33;;;7.10;99.90;;;;;;5049644;28;20684;-59
2022/11/30 08:01:28;;;;;;;16.13;13.70;;;7.20;99.90;;;;;;5049195;28;20203;-62
2022/11/30 08:03:54;;;;;;;17.13;14.70;;;6.80;99.90;;;;;;5066671;28;20605;-62
2022/11/30 08:06:26;;;;;;;18.20;14.33;;;7.30;99.90;;;;;;5066662;28;20175;-62
2022/11/30 08:08:55;;;;;;;14.83;12.50;;;6.70;99.90;;;;;;5065781;28;20171;-62
2022/11/30 08:11:23;;;;;;;17.77;14.53;;;6.70;99.90;;;;;;5066779;28;20183;-63
2022/11/30 08:13:49;;;;;;;18.07;15.47;;;7.00;99.90;;;;;;5049024;28;20199;-63
2022/11/30 08:16:20;;;;;;;17.97;14.83;;;7.80;99.90;;;;;;5049470;28;20247;-63
2022/11/30 08:18:46;;;;;;;17.67;15.13;;;7.70;99.90;;;;;;5049350;28;20281;-62
2022/11/30 08:21:14;;;;;;;16.60;14.20;;;7.00;99.90;;;;;;5067262;28;20171;-63
2022/11/30 08:23:42;;;;;;;15.90;13.53;;;7.60;99.90;;;;;;5049571;28;20206;-61
2022/11/30 08:26:14;;;;;;;19.93;17.30;;;7.30;99.90;;;;;;5052381;28;20174;-55
2022/11/30 08:28:41;;;;;;;16.33;14.13;;;7.50;99.90;;;;;;5052456;28;20587;-59
2022/11/30 08:31:11;;;;;;;15.83;13.97;;;7.70;99.90;;;;;;5062485;28;20186;-63
2022/11/30 08:33:37;;;;;;;15.20;13.53;;;7.90;99.90;;;;;;5050295;28;20191;-62
2022/11/30 08:36:06;;;;;;;16.33;13.77;;;8.00;99.90;;;;;;5049655;28;20678;-62
2022/11/30 08:38:32;;;;;;;19.77;14.33;;;8.10;99.90;;;;;;5067406;28;20224;-62
2022/11/30 08:40:58;;;;;;;12.90;11.50;;;8.80;99.90;;;;;;5068915;28;20163;-62
2022/11/30 08:43:23;;;;;;;16.27;13.03;;;8.70;99.90;;;;;;5066988;28;20255;-63
2022/11/30 08:45:49;;;;;;;12.90;11.30;;;8.40;99.90;;;;;;5050551;28;20197;-63
2022/11/30 08:48:14;;;;;;;14.77;12.47;;;7.80;99.90;;;;;;5068139;28;20186;-64
2022/11/30 08:50:40;;;;;;;14.60;11.67;;;7.30;99.90;;;;;;5067109;28;20167;-63
2022/11/30 08:53:05;;;;;;;13.77;12.20;;;7.60;99.90;;;;;;5066849;28;20191;-65
2022/11/30 08:55:31;;;;;;;13.73;12.23;;;7.30;99.90;;;;;;5049874;28;20179;-63
2022/11/30 08:57:57;;;;;;;17.27;14.07;;;7.30;99.90;;;;;;5049596;28;20203;-62
2022/11/30 09:00:22;;;;;;;16.20;13.20;;;7.40;99.90;;;;;;5049690;28;20175;-63
2022/11/30 09:02:48;;;;;;;16.17;13.47;;;7.40;99.90;;;;;;5067810;28;20210;-63
2022/11/30 09:05:14;;;;;;;37.13;15.57;;;7.40;99.90;;;;;;5066953;28;20167;-63
2022/11/30 09:07:40;;;;;;;14.67;12.77;;;8.10;99.90;;;;;;5068215;28;20198;-63
2022/11/30 09:10:06;;;;;;;24.93;12.93;;;7.10;99.90;;;;;;5067377;28;20163;-63
2022/11/30 09:12:35;;;;;;;15.70;13.07;;;7.00;99.90;;;;;;5067355;28;20191;-63
2022/11/30 09:15:00;;;;;;;15.17;12.80;;;6.70;99.90;;;;;;5066545;28;20181;-63
2022/11/30 09:17:26;;;;;;;14.27;12.50;;;6.40;99.90;;;;;;5067334;28;20568;-63
2022/11/30 09:19:53;;;;;;;14.67;12.67;;;6.50;99.90;;;;;;5067668;28;20201;-62
2022/11/30 09:22:19;;;;;;;14.83;12.87;;;7.00;99.90;;;;;;5048263;28;20217;-62
2022/11/30 09:24:44;;;;;;;21.63;16.87;;;6.80;99.90;;;;;;5062902;28;20183;-60
2022/11/30 09:27:10;;;;;;;14.77;12.60;;;8.50;99.90;;;;;;5043600;28;20270;-63
2022/11/30 09:29:35;;;;;;;15.37;12.80;;;8.40;99.90;;;;;;5062556;28;20200;-61
2022/11/30 09:32:01;;;;;;;26.93;19.70;;;7.20;99.90;;;;;;5043802;28;20182;-60
2022/11/30 09:34:26;;;;;;;19.20;15.00;;;8.40;99.90;;;;;;5063075;28;20198;-60
2022/11/30 09:36:52;;;;;;;16.63;13.70;;;8.50;99.90;;;;;;5063276;28;20185;-62
2022/11/30 09:39:18;;;;;;;15.57;13.43;;;7.50;99.90;;;;;;5062554;28;20175;-61
2022/11/30 09:41:57;;;;;;;15.93;13.33;;;8.00;99.90;;;;;;5061927;28;20202;-59
2022/11/30 09:44:31;;;;;;;19.60;15.17;;;7.30;99.90;;;;;;5061769;28;20187;-59
2022/11/30 09:47:07;;;;;;;16.67;14.13;;;7.10;99.90;;;;;;5060261;28;20198;-59
2022/11/30 09:49:36;;;;;;;18.83;14.90;;;7.20;99.90;;;;;;5043421;28;20159;-62
2022/11/30 09:52:06;;;;;;;19.00;15.33;;;7.20;99.90;;;;;;5060931;28;20167;-61
2022/11/30 09:54:35;;;;;;;18.30;15.27;;;7.10;99.90;;;;;;5043997;28;20210;-60
2022/11/30 09:57:24;;;;;;;18.73;15.30;;;7.00;99.90;;;;;;5062611;28;20175;-62
2022/11/30 09:59:57;;;;;;;19.43;14.80;;;6.80;99.90;;;;;;5061262;28;20730;-61
2022/11/30 10:02:29;;;;;;;19.37;15.80;;;7.00;99.90;;;;;;5061898;28;20176;-61
2022/11/30 10:04:56;;;;;;;20.13;15.53;;;7.90;99.90;;;;;;5062680;28;20233;-60
2022/11/30 10:07:57;;;;;;;18.83;15.57;;;7.20;99.90;;;;;;5044604;28;20210;-61
2022/11/30 10:10:26;;;;;;;19.33;16.60;;;7.30;99.90;;;;;;5065935;28;20175;-62
2022/11/30 10:13:28;;;;;;;19.73;15.97;;;7.40;99.90;;;;;;5065404;28;20214;-60
2022/11/30 10:16:12;;;;;;;19.23;16.23;;;7.50;99.90;;;;;;5066519;28;20574;-61
2022/11/30 10:18:42;;;;;;;20.80;17.57;;;7.50;99.90;;;;;;5066123;28;20214;-61
2022/11/30 10:21:35;;;;;;;20.03;17.13;;;7.60;99.90;;;;;;5066083;28;20233;-59
2022/11/30 10:24:13;;;;;;;20.87;16.07;;;7.30;99.90;;;;;;5047899;28;20195;-59
2022/11/30 10:26:44;;;;;;;19.73;16.43;;;7.10;99.90;;;;;;5066536;28;20178;-61
2022/11/30 10:29:38;;;;;;;19.07;16.17;;;7.20;99.90;;;;;;5066227;28;20177;-61
2022/11/30 10:32:20;;;;;;;18.53;16.20;;;7.50;99.90;;;;;;5067037;28;20678;-60
2022/11/30 10:34:51;;;;;;;19.43;15.83;;;7.90;99.90;;;;;;5067042;28;20178;-60
2022/11/30 10:37:34;;;;;;;17.27;14.90;;;8.50;99.90;;;;;;5048430;28;20206;-60
2022/11/30 10:40:11;;;;;;;19.60;16.03;;;8.90;99.90;;;;;;5048510;28;20238;-61
2022/11/30 10:42:43;;;;;;;19.87;17.10;;;9.20;99.90;;;;;;5066751;28;20197;-61
2022/11/30 10:45:21;;;;;;;17.37;15.47;;;9.50;99.90;;;;;;5065608;28;20206;-62
2022/11/30 10:48:16;;;;;;;20.27;18.17;;;10.80;99.90;;;;;;5048650;28;20210;-62
2022/11/30 10:50:42;;;;;;;26.90;23.87;;;12.00;99.90;;;;;;5066780;28;20226;-63
2022/11/30 10:53:10;;;;;;;17.50;15.60;;;13.80;99.90;;;;;;5067556;28;20192;-62
2022/11/30 10:55:40;;;;;;;17.90;15.90;;;15.20;99.90;;;;;;5049407;28;20179;-64
2022/11/30 10:58:25;;;;;;;17.67;15.80;;;16.50;96.90;;;;;;5065755;28;20235;-62
2022/11/30 11:01:10;;;;;;;18.97;16.87;;;16.60;94.40;;;;;;5063094;28;20621;-64
2022/11/30 11:03:36;;;;;;;16.93;15.13;;;15.90;94.50;;;;;;5062176;28;20202;-61
2022/11/30 11:06:14;;;;;;;18.23;16.43;;;15.40;95.00;;;;;;5066491;28;20253;-63
2022/11/30 11:08:41;;;;;;;18.47;16.67;;;14.90;95.10;;;;;;5048737;28;20252;-63
2022/11/30 11:11:28;;;;;;;19.00;17.10;;;14.60;96.50;;;;;;5066803;28;20176;-62
2022/11/30 11:14:08;;;;;;;17.63;15.67;;;14.10;96.70;;;;;;5049257;28;20200;-62
2022/11/30 11:16:51;;;;;;;20.23;17.37;;;13.80;97.40;;;;;;5031481;28;20188;-62
2022/11/30 11:19:33;;;;;;;19.33;17.27;;;13.60;97.30;;;;;;5065835;28;20256;-64
2022/11/30 11:22:10;;;;;;;18.47;16.57;;;13.70;97.90;;;;;;5064738;28;20180;-63
2022/11/30 11:24:35;;;;;;;16.83;15.13;;;14.10;98.60;;;;;;5066885;28;20225;-63
2022/11/30 11:27:01;;;;;;;19.50;17.40;;;14.60;97.90;;;;;;5046448;28;20179;-61
2022/11/30 11:29:33;;;;;;;18.53;16.53;;;14.60;98.40;;;;;;5065935;28;20176;-64
2022/11/30 11:32:29;;;;;;;17.20;15.40;;;15.40;96.20;;;;;;5067484;28;20198;-64
2022/11/30 11:34:56;;;;;;;17.83;16.03;;;17.00;95.90;;;;;;4965288;29;20187;-64
2022/11/30 11:37:27;;;;;;;16.93;15.23;;;18.20;94.10;;;;;;4965009;29;20206;-63
2022/11/30 11:40:13;;;;;;;16.00;14.43;;;18.90;92.40;;;;;;4934312;29;20210;-64
2022/11/30 11:42:48;;;;;;;16.73;15.02;;;20.30;92.20;;;;;;4968078;29;20210;-64
2022/11/30 11:45:21;;;;;;;16.35;14.75;;;21.90;85.40;;;;;;4966964;29;20186;-65
2022/11/30 11:48:16;;;;;;;14.65;13.25;;;22.40;83.20;;;;;;4966733;29;20242;-65
2022/11/30 11:50:56;;;;;;;14.95;13.45;;;23.70;81.70;;;;;;4948289;29;20277;-63
2022/11/30 11:53:35;;;;;;;16.73;15.23;;;24.20;76.40;;;;;;4966406;29;20691;-63
2022/11/30 11:56:30;;;;;;;16.17;14.65;;;23.40;71.20;;;;;;4966627;29;20242;-63
2022/11/30 11:59:18;;;;;;;16.03;14.43;;;21.50;71.20;;;;;;4965369;29;20353;-63
2022/11/30 12:01:49;;;;;;;15.40;13.93;;;18.60;76.40;;;;;;4964556;29;20643;-62
2022/11/30 12:04:42;;;;;;;15.87;14.30;;;17.10;79.80;;;;;;4964306;29;20229;-61
2022/11/30 12:07:21;;;;;;;15.97;14.37;;;16.40;84.80;;;;;;4964430;29;20202;-64
2022/11/30 12:10:13;;;;;;;14.90;13.40;;;16.70;86.30;;;;;;4965279;29;20174;-64
2022/11/30 12:12:38;;;;;;;15.30;13.80;;;17.50;85.50;;;;;;5065768;28;20756;-64
2022/11/30 12:15:11;;;;;;;14.17;12.80;;;17.60;83.80;;;;;;5047207;28;20270;-64
2022/11/30 12:17:59;;;;;;;15.57;14.07;;;18.00;83.60;;;;;;5066093;28;20191;-64
2022/11/30 12:20:48;;;;;;;15.50;14.00;;;18.60;84.30;;;;;;5047630;28;20178;-64
2022/11/30 12:23:42;;;;;;;15.00;13.60;;;19.40;80.70;;;;;;5047490;28;20385;-64
2022/11/30 12:26:39;;;;;;;14.67;13.17;;;19.60;77.50;;;;;;5047481;28;20266;-65
2022/11/30 12:29:33;;;;;;;16.93;15.23;;;18.80;78.80;;;;;;5065090;28;20183;-63
2022/11/30 12:32:13;;;;;;;15.20;13.70;;;18.10;79.80;;;;;;5065934;28;20179;-64
2022/11/30 12:35:11;;;;;;;15.37;13.87;;;17.50;81.30;;;;;;5065078;28;20186;-63
2022/11/30 12:37:49;;;;;;;17.67;15.83;;;16.80;83.20;;;;;;5064717;28;20200;-64
2022/11/30 12:40:27;;;;;;;20.13;18.10;;;16.40;84.30;;;;;;5065215;28;20167;-63
2022/11/30 12:43:11;;;;;;;16.70;15.00;;;15.90;84.10;;;;;;5065002;28;20193;-62
2022/11/30 12:45:43;;;;;;;18.80;16.80;;;15.10;86.20;;;;;;5046989;28;20171;-62
2022/11/30 12:48:31;;;;;;;19.73;17.73;;;14.10;88.70;;;;;;5064965;28;20168;-57
2022/11/30 12:51:11;;;;;;;19.00;16.73;;;13.30;91.10;;;;;;5065457;28;20663;-63
2022/11/30 12:53:48;;;;;;;17.77;15.40;;;13.00;91.90;;;;;;5065241;28;20191;-64